createdAt,value
2023-04-24T00:01:10.084Z,2.70
2023-04-24T00:03:38.254Z,3.70
2023-04-24T00:06:06.368Z,3.67
2023-04-24T00:08:33.469Z,3.05
2023-04-24T00:11:00.491Z,3.70
2023-04-24T00:13:29.300Z,3.15
2023-04-24T00:15:56.986Z,3.78
2023-04-24T00:18:23.612Z,4.18
2023-04-24T00:20:50.303Z,4.05
2023-04-24T00:23:17.076Z,3.70
2023-04-24T00:25:43.758Z,3.90
2023-04-24T00:28:10.551Z,3.78
2023-04-24T00:30:37.509Z,4.22
2023-04-24T00:33:04.322Z,3.10
2023-04-24T00:35:31.242Z,3.55
2023-04-24T00:37:57.936Z,5.43
2023-04-24T00:40:24.796Z,4.85
2023-04-24T00:42:51.591Z,2.90
2023-04-24T00:45:18.319Z,2.75
2023-04-24T00:47:46.422Z,3.15
2023-04-24T00:50:15.290Z,4.03
2023-04-24T00:52:42.135Z,3.53
2023-04-24T00:55:09.524Z,3.60
2023-04-24T00:57:36.636Z,4.07
2023-04-24T01:00:04.431Z,3.58
2023-04-24T01:02:31.442Z,3.78
2023-04-24T01:04:58.384Z,3.25
2023-04-24T01:07:28.606Z,3.72
2023-04-24T01:09:55.400Z,3.92
2023-04-24T01:12:22.255Z,3.78
2023-04-24T01:14:51.006Z,2.55
2023-04-24T01:17:17.992Z,3.25
2023-04-24T01:19:47.873Z,4.60
2023-04-24T01:22:15.374Z,3.55
2023-04-24T01:24:43.126Z,3.38
2023-04-24T01:27:12.985Z,4.00
2023-04-24T01:29:40.570Z,3.10
2023-04-24T01:32:08.353Z,3.35
2023-04-24T01:34:35.376Z,4.07
2023-04-24T01:37:02.237Z,3.40
2023-04-24T01:39:29.656Z,5.80
2023-04-24T01:41:57.205Z,6.00
2023-04-24T01:44:24.639Z,3.15
2023-04-24T01:46:51.631Z,2.88
2023-04-24T01:49:18.859Z,2.47
2023-04-24T01:51:46.169Z,3.95
2023-04-24T01:54:13.109Z,2.38
2023-04-24T01:56:43.843Z,3.00
2023-04-24T01:59:13.575Z,3.25
2023-04-24T02:01:40.715Z,3.38
2023-04-24T02:04:08.804Z,4.55
2023-04-24T02:06:36.328Z,2.90
2023-04-24T02:09:04.419Z,3.83
2023-04-24T02:11:31.580Z,2.95
2023-04-24T02:13:58.630Z,3.33
2023-04-24T02:16:25.912Z,3.63
2023-04-24T02:18:52.844Z,5.00
2023-04-24T02:21:19.562Z,2.78
2023-04-24T02:23:46.235Z,2.17
2023-04-24T02:26:13.921Z,3.40
2023-04-24T02:28:40.789Z,3.78
2023-04-24T02:31:07.890Z,3.47
2023-04-24T02:33:34.630Z,3.60
2023-04-24T02:36:01.381Z,2.70
2023-04-24T02:38:28.302Z,3.47
2023-04-24T02:40:55.208Z,3.28
2023-04-24T02:43:22.041Z,2.97
2023-04-24T02:45:48.760Z,3.42
2023-04-24T02:48:15.784Z,2.50
2023-04-24T02:50:42.450Z,4.30
2023-04-24T02:53:09.244Z,4.45
2023-04-24T02:55:36.675Z,3.95
2023-04-24T02:58:03.588Z,2.88
2023-04-24T03:00:30.989Z,3.40
2023-04-24T03:02:58.015Z,4.35
2023-04-24T03:05:24.947Z,3.63
2023-04-24T03:07:53.624Z,4.25
2023-04-24T03:10:23.723Z,4.10
2023-04-24T03:12:50.674Z,3.75
2023-04-24T03:15:18.852Z,4.18
2023-04-24T03:17:45.611Z,3.13
2023-04-24T03:20:12.697Z,2.85
2023-04-24T03:22:39.518Z,3.88
2023-04-24T03:25:10.336Z,3.50
2023-04-24T03:27:38.357Z,3.88
2023-04-24T03:30:16.624Z,3.22
2023-04-24T03:32:51.165Z,2.58
2023-04-24T03:35:23.552Z,3.15
2023-04-24T03:37:51.138Z,3.22
2023-04-24T03:40:37.995Z,3.47
2023-04-24T03:43:12.883Z,4.03
2023-04-24T03:45:39.684Z,3.35
2023-04-24T03:48:07.415Z,3.67
2023-04-24T03:50:34.725Z,3.97
2023-04-24T03:53:02.195Z,3.78
2023-04-24T03:55:36.226Z,3.55
2023-04-24T03:58:03.602Z,3.58
2023-04-24T04:00:34.342Z,3.08
2023-04-24T04:03:20.107Z,4.00
2023-04-24T04:05:47.294Z,3.67
2023-04-24T04:08:14.023Z,3.35
2023-04-24T04:10:40.838Z,3.78
2023-04-24T04:13:07.616Z,4.00
2023-04-24T04:15:35.744Z,3.13
2023-04-24T04:18:02.629Z,2.15
2023-04-24T04:20:29.995Z,4.65
2023-04-24T04:22:56.903Z,3.38
2023-04-24T04:25:35.340Z,3.17
2023-04-24T04:28:03.018Z,3.45
2023-04-24T04:30:33.186Z,2.58
2023-04-24T04:33:03.641Z,4.47
2023-04-24T04:35:31.956Z,3.30
2023-04-24T04:37:59.837Z,3.35
2023-04-24T04:40:27.379Z,3.70
2023-04-24T04:42:59.282Z,3.13
2023-04-24T04:45:29.512Z,3.42
2023-04-24T04:48:34.879Z,3.60
2023-04-24T04:51:03.377Z,3.40
2023-04-24T04:53:30.408Z,3.10
2023-04-24T04:55:57.445Z,4.75
2023-04-24T04:58:28.545Z,3.72
2023-04-24T05:00:58.619Z,2.35
2023-04-24T05:03:37.205Z,7.47
2023-04-24T05:06:08.087Z,3.35
2023-04-24T05:08:38.097Z,3.30
2023-04-24T05:11:08.026Z,2.40
2023-04-24T05:13:40.708Z,3.03
2023-04-24T05:16:22.784Z,12.77
2023-04-24T05:18:52.319Z,3.50
2023-04-24T05:21:23.610Z,3.65
2023-04-24T05:23:52.234Z,4.32
2023-04-24T05:26:31.132Z,3.72
2023-04-24T05:28:59.978Z,3.30
2023-04-24T05:31:26.864Z,2.30
2023-04-24T05:33:53.590Z,3.90
2023-04-24T05:36:20.612Z,3.42
2023-04-24T05:38:47.388Z,3.83
2023-04-24T05:41:14.860Z,5.60
2023-04-24T05:43:42.097Z,4.68
2023-04-24T05:46:08.708Z,4.25
2023-04-24T05:48:35.576Z,3.28
2023-04-24T05:51:04.353Z,3.20
2023-04-24T05:53:31.524Z,4.38
2023-04-24T05:55:58.484Z,5.97
2023-04-24T05:58:25.502Z,4.35
2023-04-24T06:00:52.389Z,6.25
2023-04-24T06:03:19.403Z,5.50
2023-04-24T06:05:48.272Z,3.33
2023-04-24T06:08:14.955Z,3.47
2023-04-24T06:10:43.947Z,2.63
2023-04-24T06:13:12.151Z,6.18
2023-04-24T06:15:43.375Z,6.40
2023-04-24T06:18:20.421Z,7.30
2023-04-24T06:20:48.774Z,6.13
2023-04-24T06:23:15.646Z,4.30
2023-04-24T06:25:42.558Z,3.03
2023-04-24T06:28:11.965Z,5.05
2023-04-24T06:30:38.636Z,5.25
2023-04-24T06:33:18.765Z,4.72
2023-04-24T06:35:46.658Z,3.72
2023-04-24T06:38:13.242Z,5.57
2023-04-24T06:40:40.263Z,5.72
2023-04-24T06:43:07.343Z,6.78
2023-04-24T06:45:34.238Z,7.60
2023-04-24T06:48:01.071Z,11.35
2023-04-24T06:50:27.862Z,13.65
2023-04-24T06:52:54.582Z,16.40
2023-04-24T06:55:21.533Z,20.27
2023-04-24T06:57:48.385Z,20.40
2023-04-24T07:00:15.494Z,26.13
2023-04-24T07:02:42.252Z,24.17
2023-04-24T07:05:09.457Z,27.52
2023-04-24T07:07:38.955Z,32.58
2023-04-24T07:10:06.708Z,39.75
2023-04-24T07:12:34.026Z,37.70
2023-04-24T07:15:01.605Z,38.85
2023-04-24T07:17:28.420Z,41.55
2023-04-24T07:19:55.147Z,45.90
2023-04-24T07:22:21.863Z,53.88
2023-04-24T07:24:48.644Z,53.22
2023-04-24T07:27:16.271Z,57.38
2023-04-24T07:29:43.925Z,60.70
2023-04-24T07:32:11.422Z,74.07
2023-04-24T07:34:38.328Z,70.30
2023-04-24T07:37:05.382Z,76.60
2023-04-24T07:39:32.670Z,75.45
2023-04-24T07:42:00.452Z,73.57
2023-04-24T07:44:27.362Z,81.05
2023-04-24T07:46:54.541Z,76.18
2023-04-24T07:49:21.160Z,84.05
2023-04-24T07:51:47.894Z,81.05
2023-04-24T07:54:14.710Z,83.43
2023-04-24T07:56:43.999Z,82.53
2023-04-24T08:01:38.056Z,82.85
2023-04-24T08:04:04.887Z,85.82
2023-04-24T08:06:32.940Z,88.00
2023-04-24T08:09:00.763Z,90.38
2023-04-24T08:11:28.257Z,86.75
2023-04-24T08:13:55.978Z,78.10
2023-04-24T08:16:24.940Z,84.28
2023-04-24T08:18:52.214Z,80.90
2023-04-24T08:21:19.855Z,82.90
2023-04-24T08:23:47.171Z,81.65
2023-04-24T08:26:14.988Z,85.43
2023-04-24T08:28:41.653Z,78.22
2023-04-24T08:31:08.351Z,78.65
2023-04-24T08:33:37.844Z,78.80
2023-04-24T08:36:06.098Z,75.07
2023-04-24T08:38:33.083Z,73.40
2023-04-24T08:41:01.251Z,76.57
2023-04-24T08:43:29.220Z,71.05
2023-04-24T08:45:57.768Z,75.13
2023-04-24T08:48:30.870Z,69.05
2023-04-24T08:51:00.123Z,65.70
2023-04-24T08:53:28.097Z,71.15
2023-04-24T08:55:57.743Z,68.05
2023-04-24T08:58:27.539Z,66.90
2023-04-24T09:00:56.982Z,65.18
2023-04-24T09:03:24.305Z,62.03
2023-04-24T09:05:51.667Z,64.45
2023-04-24T09:08:20.022Z,63.28
2023-04-24T09:10:49.076Z,58.00
2023-04-24T09:13:17.824Z,59.67
2023-04-24T09:15:44.664Z,61.47
2023-04-24T09:18:11.461Z,59.38
2023-04-24T09:21:00.212Z,58.70
2023-04-24T09:23:30.508Z,58.13
2023-04-24T09:25:58.349Z,55.00
2023-04-24T09:28:31.463Z,54.80
2023-04-24T09:31:05.502Z,53.58
2023-04-24T09:33:32.393Z,54.67
2023-04-24T09:36:00.204Z,53.60
2023-04-24T09:38:37.770Z,55.72
2023-04-24T09:41:07.007Z,55.70
2023-04-24T09:43:35.302Z,47.95
2023-04-24T09:46:07.570Z,50.30
2023-04-24T09:48:36.436Z,49.78
2023-04-24T09:51:05.179Z,52.05
2023-04-24T09:53:32.231Z,49.58
2023-04-24T09:56:09.310Z,47.70
2023-04-24T09:58:37.512Z,46.95
2023-04-24T10:01:04.740Z,42.83
2023-04-24T10:03:33.549Z,45.38
2023-04-24T10:06:01.978Z,42.88
2023-04-24T10:08:35.561Z,42.17
2023-04-24T10:11:03.059Z,41.42
2023-04-24T10:13:29.969Z,37.83
2023-04-24T10:15:57.447Z,42.95
2023-04-24T10:18:26.212Z,39.35
2023-04-24T10:20:55.877Z,37.92
2023-04-24T10:23:24.213Z,38.45
2023-04-24T10:25:52.237Z,39.58
2023-04-24T10:28:20.306Z,39.30
2023-04-24T10:30:47.520Z,39.88
2023-04-24T10:33:15.223Z,38.58
2023-04-24T10:35:46.857Z,39.50
2023-04-24T10:38:16.766Z,38.58
2023-04-24T10:40:45.110Z,39.47
2023-04-24T10:43:17.100Z,38.60
2023-04-24T10:46:02.325Z,38.53
2023-04-24T10:48:29.042Z,40.47
2023-04-24T10:50:55.894Z,40.15
2023-04-24T10:53:24.582Z,35.97
2023-04-24T10:56:14.481Z,36.90
2023-04-24T10:58:49.144Z,36.95
2023-04-24T11:01:36.079Z,36.35
2023-04-24T11:04:04.709Z,37.83
2023-04-24T11:06:34.132Z,37.33
2023-04-24T11:11:34.077Z,35.33
2023-04-24T11:14:01.077Z,33.17
2023-04-24T11:16:36.319Z,33.75
2023-04-24T11:19:16.313Z,30.73
2023-04-24T11:21:43.306Z,32.00
2023-04-24T11:24:30.164Z,30.27
2023-04-24T11:27:03.426Z,30.30
2023-04-24T11:29:54.315Z,29.60
2023-04-24T11:32:37.448Z,31.33
2023-04-24T11:35:22.073Z,30.52
2023-04-24T11:38:18.842Z,27.52
2023-04-24T11:40:41.229Z,30.77
2023-04-24T11:43:09.759Z,26.90
2023-04-24T11:45:36.676Z,29.00
2023-04-24T11:48:04.617Z,30.55
2023-04-24T11:50:31.722Z,28.80
2023-04-24T11:52:58.685Z,30.70
2023-04-24T11:55:28.328Z,31.33
2023-04-24T11:58:00.533Z,31.40
2023-04-24T12:00:29.062Z,29.27
2023-04-24T12:03:10.334Z,33.50
2023-04-24T12:05:37.925Z,31.38
2023-04-24T12:08:04.983Z,27.77
2023-04-24T12:10:33.585Z,30.42
2023-04-24T12:13:01.404Z,34.65
2023-04-24T12:15:28.928Z,32.42
2023-04-24T12:17:56.751Z,35.35
2023-04-24T12:20:29.979Z,34.30
2023-04-24T12:22:58.158Z,38.40
2023-04-24T12:25:27.640Z,35.63
2023-04-24T12:28:13.672Z,40.05
2023-04-24T12:30:50.126Z,42.47
2023-04-24T12:33:21.001Z,44.33
2023-04-24T12:35:49.772Z,42.47
2023-04-24T12:38:17.203Z,50.00
2023-04-24T12:40:44.728Z,52.10
2023-04-24T12:43:15.974Z,59.40
2023-04-24T12:45:42.719Z,57.20
2023-04-24T12:48:09.371Z,70.78
2023-04-24T12:50:36.134Z,91.00
2023-04-24T12:53:02.869Z,107.30
2023-04-24T12:55:29.599Z,130.48
2023-04-24T12:57:57.085Z,144.98
2023-04-24T13:00:23.951Z,161.68
2023-04-24T13:02:50.827Z,174.25
2023-04-24T13:05:18.092Z,180.23
2023-04-24T13:07:44.838Z,180.30
2023-04-24T13:10:11.800Z,179.13
2023-04-24T13:12:39.749Z,183.13
2023-04-24T13:15:07.320Z,191.52
2023-04-24T13:17:34.321Z,205.52
2023-04-24T13:20:01.008Z,216.82
2023-04-24T13:22:28.318Z,223.15
2023-04-24T13:24:55.580Z,225.10
2023-04-24T13:27:22.303Z,233.73
2023-04-24T13:29:48.950Z,239.68
2023-04-24T13:32:16.083Z,245.13
2023-04-24T13:34:42.861Z,254.85
2023-04-24T13:37:09.603Z,254.95
2023-04-24T13:39:36.410Z,253.40
2023-04-24T13:42:04.882Z,250.43
2023-04-24T13:44:32.612Z,234.32
2023-04-24T13:46:59.668Z,252.45
2023-04-24T13:49:27.604Z,243.80
2023-04-24T13:51:56.115Z,247.35
2023-04-24T13:54:24.479Z,256.00
2023-04-24T13:56:52.827Z,260.20
2023-04-24T13:59:20.933Z,259.55
2023-04-24T14:01:48.722Z,252.82
2023-04-24T14:04:15.829Z,258.08
2023-04-24T14:06:42.680Z,253.68
2023-04-24T14:09:09.491Z,250.68
2023-04-24T14:11:36.468Z,253.15
2023-04-24T14:14:03.912Z,243.75
2023-04-24T14:16:31.842Z,240.73
2023-04-24T14:18:59.001Z,235.55
2023-04-24T14:21:25.705Z,239.90
2023-04-24T14:23:52.322Z,224.68
2023-04-24T14:26:19.001Z,232.48
2023-04-24T14:28:45.641Z,229.18
2023-04-24T14:31:12.439Z,222.88
2023-04-24T14:33:39.114Z,214.95
2023-04-24T14:36:06.736Z,205.57
2023-04-24T14:38:33.905Z,201.05
2023-04-24T14:43:31.142Z,187.25
2023-04-24T14:45:57.836Z,184.98
2023-04-24T14:48:24.518Z,179.85
2023-04-24T14:50:51.464Z,178.07
2023-04-24T14:53:18.471Z,170.73
2023-04-24T14:55:45.553Z,163.52
2023-04-24T14:58:12.290Z,169.65
2023-04-24T15:00:39.231Z,162.05
2023-04-24T15:03:06.082Z,166.00
2023-04-24T15:05:33.486Z,159.75
2023-04-24T15:08:00.573Z,147.68
2023-04-24T15:10:27.344Z,146.95
2023-04-24T15:12:54.084Z,147.80
2023-04-24T15:15:20.749Z,146.50
2023-04-24T15:17:47.407Z,150.20
2023-04-24T15:20:14.211Z,142.65
2023-04-24T15:22:41.131Z,132.95
2023-04-24T15:25:08.403Z,136.23
2023-04-24T15:27:45.906Z,133.82
2023-04-24T15:30:14.357Z,130.90
2023-04-24T15:32:41.377Z,121.60
2023-04-24T15:35:10.155Z,124.28
2023-04-24T15:37:38.990Z,127.72
2023-04-24T15:40:08.286Z,121.53
2023-04-24T15:42:35.843Z,117.45
2023-04-24T15:45:02.665Z,114.85
2023-04-24T15:47:29.405Z,117.28
2023-04-24T15:49:56.106Z,113.32
2023-04-24T15:52:22.977Z,112.97
2023-04-24T15:54:50.130Z,111.50
2023-04-24T15:57:17.072Z,108.95
2023-04-24T15:59:45.388Z,103.57
2023-04-24T16:02:19.386Z,102.30
2023-04-24T16:04:51.018Z,101.43
2023-04-24T16:07:20.902Z,101.32
2023-04-24T16:09:47.714Z,92.78
2023-04-24T16:12:14.729Z,97.28
2023-04-24T16:14:42.284Z,89.25
2023-04-24T16:17:09.441Z,87.15
2023-04-24T16:19:36.375Z,92.28
2023-04-24T16:22:04.185Z,87.32
2023-04-24T16:24:31.323Z,83.35
2023-04-24T16:26:58.250Z,82.22
2023-04-24T16:29:25.084Z,81.03
2023-04-24T16:31:51.920Z,82.20
2023-04-24T16:34:18.934Z,78.93
2023-04-24T16:36:45.753Z,80.65
2023-04-24T16:39:13.221Z,76.03
2023-04-24T16:41:40.300Z,73.65
2023-04-24T16:44:07.438Z,73.00
2023-04-24T16:46:34.654Z,74.93
2023-04-24T16:49:01.603Z,75.05
2023-04-24T16:51:29.097Z,69.75
2023-04-24T16:53:56.209Z,69.72
2023-04-24T16:56:23.233Z,68.35
2023-04-24T16:58:50.862Z,66.38
2023-04-24T17:01:18.057Z,64.22
2023-04-24T17:03:45.219Z,70.88
2023-04-24T17:06:12.717Z,64.32
2023-04-24T17:08:39.394Z,60.53
2023-04-24T17:11:09.188Z,61.75
2023-04-24T17:13:36.151Z,56.13
2023-04-24T17:16:03.051Z,57.83
2023-04-24T17:18:29.836Z,59.13
2023-04-24T17:20:56.696Z,57.92
2023-04-24T17:23:23.542Z,58.67
2023-04-24T17:25:50.336Z,54.25
2023-04-24T17:28:29.368Z,58.47
2023-04-24T17:30:58.564Z,53.58
2023-04-24T17:35:53.092Z,53.78
2023-04-24T17:38:20.933Z,50.60
2023-04-24T17:40:47.668Z,49.90
2023-04-24T17:43:18.074Z,52.25
2023-04-24T17:45:49.834Z,48.00
2023-04-24T17:48:18.182Z,48.40
2023-04-24T17:50:46.004Z,46.95
2023-04-24T17:53:12.720Z,49.17
2023-04-24T17:55:40.529Z,44.72
2023-04-24T17:58:07.946Z,42.95
2023-04-24T18:00:35.300Z,44.65
2023-04-24T18:03:03.686Z,43.28
2023-04-24T18:05:31.832Z,44.08
2023-04-24T18:07:59.203Z,40.13
2023-04-24T18:10:27.913Z,38.03
2023-04-24T18:12:55.055Z,42.38
2023-04-24T18:15:22.070Z,38.67
2023-04-24T18:17:49.136Z,36.55
2023-04-24T18:20:17.791Z,36.13
2023-04-24T18:22:44.805Z,39.35
2023-04-24T18:25:12.174Z,34.08
2023-04-24T18:27:40.150Z,35.03
2023-04-24T18:30:08.658Z,35.15
2023-04-24T18:32:35.843Z,37.13
2023-04-24T18:35:03.443Z,34.70
2023-04-24T18:37:32.860Z,33.28
2023-04-24T18:42:26.029Z,34.78
2023-04-24T18:45:02.562Z,33.08
2023-04-24T18:47:29.327Z,32.30
2023-04-24T18:49:56.451Z,32.20
2023-04-24T18:52:24.245Z,32.33
2023-04-24T18:54:51.229Z,28.95
2023-04-24T18:57:18.000Z,32.47
2023-04-24T18:59:44.794Z,29.80
2023-04-24T19:02:11.854Z,26.73
2023-04-24T19:04:38.653Z,31.45
2023-04-24T19:07:05.548Z,28.55
2023-04-24T19:09:32.358Z,29.23
2023-04-24T19:12:00.194Z,28.73
2023-04-24T19:14:27.005Z,28.40
2023-04-24T19:16:54.011Z,26.00
2023-04-24T19:19:21.730Z,29.55
2023-04-24T19:21:50.121Z,26.55
2023-04-24T19:24:19.085Z,26.80
2023-04-24T19:26:46.385Z,26.38
2023-04-24T19:29:13.202Z,25.67
2023-04-24T19:31:40.195Z,25.88
2023-04-24T19:34:06.985Z,24.15
2023-04-24T19:36:34.046Z,24.33
2023-04-24T19:39:00.988Z,23.80
2023-04-24T19:41:27.717Z,23.60
2023-04-24T19:43:54.495Z,26.08
2023-04-24T19:46:21.402Z,22.33
2023-04-24T19:48:48.352Z,20.95
2023-04-24T19:51:15.486Z,20.42
2023-04-24T19:53:43.558Z,22.50
2023-04-24T19:56:10.587Z,22.17
2023-04-24T19:58:37.218Z,21.48
2023-04-24T20:01:05.927Z,21.13
2023-04-24T20:03:34.010Z,21.45
2023-04-24T20:06:01.485Z,21.00
2023-04-24T20:08:28.226Z,19.17
2023-04-24T20:10:57.818Z,18.38
2023-04-24T20:13:27.550Z,19.17
2023-04-24T20:18:21.366Z,18.02
2023-04-24T20:20:48.090Z,19.05
2023-04-24T20:23:14.806Z,16.45
2023-04-24T20:25:41.436Z,16.17
2023-04-24T20:28:08.140Z,17.05
2023-04-24T20:30:34.861Z,17.98
2023-04-24T20:33:01.692Z,17.67
2023-04-24T20:35:28.477Z,16.55
2023-04-24T20:37:55.231Z,16.38
2023-04-24T20:40:22.030Z,17.05
2023-04-24T20:42:49.824Z,16.30
2023-04-24T20:45:17.913Z,16.05
2023-04-24T20:47:44.771Z,14.75
2023-04-24T20:50:12.150Z,15.80
2023-04-24T20:52:39.057Z,13.32
2023-04-24T20:55:06.882Z,13.75
2023-04-24T20:57:34.013Z,16.17
2023-04-24T21:00:04.186Z,14.63
2023-04-24T21:02:31.070Z,15.75
2023-04-24T21:04:57.787Z,14.65
2023-04-24T21:07:24.450Z,14.43
2023-04-24T21:09:51.211Z,14.25
2023-04-24T21:12:18.081Z,14.82
2023-04-24T21:14:44.919Z,13.85
2023-04-24T21:17:11.736Z,13.30
2023-04-24T21:19:38.607Z,12.20
2023-04-24T21:22:05.505Z,11.45
2023-04-24T21:24:32.273Z,12.68
2023-04-24T21:26:59.196Z,13.60
2023-04-24T21:29:26.351Z,13.63
2023-04-24T21:31:53.304Z,12.30
2023-04-24T21:34:19.929Z,11.60
2023-04-24T21:36:47.814Z,11.52
2023-04-24T21:39:14.719Z,10.23
2023-04-24T21:41:41.712Z,11.48
2023-04-24T21:44:08.909Z,10.25
2023-04-24T21:46:36.145Z,10.52
2023-04-24T21:49:02.925Z,11.27
2023-04-24T21:51:29.523Z,12.05
2023-04-24T21:53:56.330Z,10.93
2023-04-24T21:56:23.207Z,11.88
2023-04-24T21:58:50.020Z,10.13
2023-04-24T22:01:16.931Z,11.35
2023-04-24T22:03:43.719Z,10.35
2023-04-24T22:06:10.679Z,9.25
2023-04-24T22:08:37.511Z,11.13
2023-04-24T22:11:07.208Z,9.27
2023-04-24T22:13:37.900Z,9.95
2023-04-24T22:16:04.806Z,9.75
2023-04-24T22:18:46.081Z,8.75
2023-04-24T22:21:13.919Z,10.05
2023-04-24T22:23:40.792Z,11.68
2023-04-24T22:26:07.542Z,9.13
2023-04-24T22:28:34.320Z,9.13
2023-04-24T22:31:01.213Z,9.80
2023-04-24T22:33:28.156Z,8.55
2023-04-24T22:35:55.239Z,9.27
2023-04-24T22:38:21.846Z,7.97
2023-04-24T22:40:48.974Z,10.50
2023-04-24T22:43:17.401Z,7.75
2023-04-24T22:45:43.986Z,9.13
2023-04-24T22:48:10.714Z,8.13
2023-04-24T22:50:37.518Z,8.50
2023-04-24T22:53:04.145Z,8.82
2023-04-24T22:55:31.415Z,7.97
2023-04-24T22:57:58.329Z,8.13
2023-04-24T23:00:24.994Z,7.13
2023-04-24T23:02:51.816Z,8.45
2023-04-24T23:05:21.374Z,7.25
2023-04-24T23:10:14.662Z,9.20
2023-04-24T23:12:41.483Z,9.63
2023-04-24T23:15:09.783Z,8.25
2023-04-24T23:17:36.389Z,7.57
2023-04-24T23:20:04.280Z,7.15
2023-04-24T23:22:31.267Z,8.65
2023-04-24T23:24:57.933Z,5.88
2023-04-24T23:27:24.595Z,7.35
2023-04-24T23:29:51.922Z,7.50
2023-04-24T23:32:18.833Z,7.15
2023-04-24T23:34:45.792Z,7.85
2023-04-24T23:37:12.693Z,7.47
2023-04-24T23:39:39.537Z,6.50
2023-04-24T23:42:07.834Z,6.43
2023-04-24T23:44:35.050Z,5.88
2023-04-24T23:47:01.742Z,7.18
2023-04-24T23:49:28.314Z,7.00
2023-04-24T23:51:56.269Z,6.38
2023-04-24T23:54:22.939Z,5.13
2023-04-24T23:56:50.171Z,6.55
2023-04-24T23:59:16.835Z,6.30
